CheckWX is a tool to help pilots better visualize weather data.  It is not intended as a substitute for an official pre-flight weather briefing.

12:59:11 UTC

FNKU TAF
Kuito Airport
Kuito, Angola
TAF FNKU 261100Z 2612/2624 18007KT 9000 FEW012 BKN025 TEMPO 2613/2617 24007KT 6000 -RADZ SCT015 FEW020CB BKN030 BECMG 2620/2622 28005KT

Mar-26@
12:00 UTC

Mar-26 @ 12:00 UTC

Mar-26@
20:00 UTC

Mar-26 @ 20:00 UTC

TAF FNKU 261100Z 2612/2624 18007KT 9000 FEW012 BKN025
Wind
  • 180° at 7 KTS
Cloud Levels
  • Few at 1,200' AGL
  • Broken at 2,500' AGL

Mar-26@
13:00 UTC

Mar-26 @ 13:00 UTC

Mar-26@
17:00 UTC

Mar-26 @ 17:00 UTC

TEMPO 2613/2617 24007KT 6000 -RADZ SCT015 FEW020CB BKN030

Temporary

Temporary Changes expected for less than half the time period

Wind
  • 240° at 7 KTS
Conditions
Light Rain, Light Drizzle
Cloud Levels
  • Scattered at 1,500' AGL
  • Few at 2,000' AGL
  • Broken at 3,000' AGL

Mar-26@
20:00 UTC

Mar-26 @ 20:00 UTC

Mar-27@
00:00 UTC

Mar-27 @ 00:00 UTC

BECMG 2620/2622 28005KT

Becoming

Becoming Conditions expected by Tue, Mar 26, 2019 @ 22:00 UTC

Wind
  • 280° at 5 KTS
Cloud Levels
  • Few at 1,200' AGL
  • Broken at 2,500' AGL